sensor_id;sensor_type;location;lat;lon;timestamp;pressure;altitude;pressure_sealevel;temperature;humidity
82476;BME280;72099;43.176;76.872;2024-02-04T00:01:59;89675.34;;;-6.07;63.54
82476;BME280;72099;43.176;76.872;2024-02-04T00:04:59;89678.59;;;-6.16;63.37
82476;BME280;72099;43.176;76.872;2024-02-04T00:08:01;89682.13;;;-6.22;63.39
82476;BME280;72099;43.176;76.872;2024-02-04T00:11:03;89688.94;;;-6.33;64.27
82476;BME280;72099;43.176;76.872;2024-02-04T00:14:09;89693.97;;;-6.43;64.50
82476;BME280;72099;43.176;76.872;2024-02-04T00:17:09;89702.13;;;-6.46;64.99
82476;BME280;72099;43.176;76.872;2024-02-04T00:20:10;89683.34;;;-6.62;64.57
82476;BME280;72099;43.176;76.872;2024-02-04T00:23:11;89674.69;;;-6.83;63.90
82476;BME280;72099;43.176;76.872;2024-02-04T00:26:12;89704.19;;;-6.75;63.93
82476;BME280;72099;43.176;76.872;2024-02-04T00:29:13;89724.19;;;-6.67;64.83
82476;BME280;72099;43.176;76.872;2024-02-04T00:32:14;89731.63;;;-6.66;65.23
82476;BME280;72099;43.176;76.872;2024-02-04T00:35:14;89730.47;;;-6.53;64.16
82476;BME280;72099;43.176;76.872;2024-02-04T00:38:22;89722.16;;;-6.38;64.62
82476;BME280;72099;43.176;76.872;2024-02-04T00:41:23;89727.38;;;-6.28;63.97
82476;BME280;72099;43.176;76.872;2024-02-04T00:44:23;89722.00;;;-6.27;64.04
82476;BME280;72099;43.176;76.872;2024-02-04T00:47:24;89724.97;;;-6.40;63.62
82476;BME280;72099;43.176;76.872;2024-02-04T00:50:26;89711.72;;;-6.64;63.95
82476;BME280;72099;43.176;76.872;2024-02-04T00:53:27;89714.94;;;-6.73;65.17
82476;BME280;72099;43.176;76.872;2024-02-04T00:56:33;89704.56;;;-6.89;63.90
82476;BME280;72099;43.176;76.872;2024-02-04T00:59:35;89715.16;;;-7.02;64.80
82476;BME280;72099;43.176;76.872;2024-02-04T01:02:35;89702.53;;;-7.08;64.66
82476;BME280;72099;43.176;76.872;2024-02-04T01:05:36;89698.06;;;-7.18;64.62
82476;BME280;72099;43.176;76.872;2024-02-04T01:08:37;89705.22;;;-7.20;65.86
82476;BME280;72099;43.176;76.872;2024-02-04T01:11:38;89683.06;;;-7.36;64.66
82476;BME280;72099;43.176;76.872;2024-02-04T01:14:39;89699.38;;;-7.37;64.83
82476;BME280;72099;43.176;76.872;2024-02-04T01:17:39;89705.38;;;-7.49;65.06
82476;BME280;72099;43.176;76.872;2024-02-04T01:20:40;89691.94;;;-7.61;65.04
82476;BME280;72099;43.176;76.872;2024-02-04T01:23:41;89708.56;;;-7.58;64.13
82476;BME280;72099;43.176;76.872;2024-02-04T01:26:42;89708.88;;;-7.55;64.91
82476;BME280;72099;43.176;76.872;2024-02-04T01:29:43;89693.88;;;-7.51;64.85
82476;BME280;72099;43.176;76.872;2024-02-04T01:32:44;89705.38;;;-7.49;64.85
82476;BME280;72099;43.176;76.872;2024-02-04T01:35:45;89711.50;;;-7.50;63.78
82476;BME280;72099;43.176;76.872;2024-02-04T01:38:46;89720.66;;;-7.54;63.44
82476;BME280;72099;43.176;76.872;2024-02-04T01:41:47;89717.31;;;-7.54;63.96
82476;BME280;72099;43.176;76.872;2024-02-04T01:44:48;89712.13;;;-7.59;63.49
82476;BME280;72099;43.176;76.872;2024-02-04T01:47:49;89723.13;;;-7.59;63.72
82476;BME280;72099;43.176;76.872;2024-02-04T01:50:51;89723.06;;;-7.64;63.63
82476;BME280;72099;43.176;76.872;2024-02-04T01:53:53;89723.59;;;-7.62;63.15
82476;BME280;72099;43.176;76.872;2024-02-04T01:56:55;89720.09;;;-7.56;63.91
82476;BME280;72099;43.176;76.872;2024-02-04T01:59:56;89727.13;;;-7.46;64.37
82476;BME280;72099;43.176;76.872;2024-02-04T02:02:59;89732.53;;;-7.43;63.13
82476;BME280;72099;43.176;76.872;2024-02-04T02:06:00;89720.00;;;-7.44;62.48
82476;BME280;72099;43.176;76.872;2024-02-04T02:09:02;89731.28;;;-7.40;63.41
82476;BME280;72099;43.176;76.872;2024-02-04T02:12:13;89732.66;;;-7.32;62.46
82476;BME280;72099;43.176;76.872;2024-02-04T02:15:18;89731.97;;;-7.28;61.84
82476;BME280;72099;43.176;76.872;2024-02-04T02:18:58;89732.78;;;-7.22;61.58
82476;BME280;72099;43.176;76.872;2024-02-04T02:22:06;89734.69;;;-7.13;62.09
82476;BME280;72099;43.176;76.872;2024-02-04T02:25:16;89723.25;;;-7.05;62.04
82476;BME280;72099;43.176;76.872;2024-02-04T02:28:20;89728.78;;;-6.91;60.31
82476;BME280;72099;43.176;76.872;2024-02-04T02:31:21;89745.91;;;-6.70;61.09
82476;BME280;72099;43.176;76.872;2024-02-04T02:34:23;89748.13;;;-6.51;60.17
82476;BME280;72099;43.176;76.872;2024-02-04T02:37:32;89740.16;;;-6.28;58.63
82476;BME280;72099;43.176;76.872;2024-02-04T02:40:53;89751.72;;;-5.93;57.82
82476;BME280;72099;43.176;76.872;2024-02-04T02:43:55;89738.47;;;-5.85;57.40
82476;BME280;72099;43.176;76.872;2024-02-04T02:46:59;89764.28;;;-5.55;57.89
82476;BME280;72099;43.176;76.872;2024-02-04T02:50:01;89767.94;;;-5.41;57.75
82476;BME280;72099;43.176;76.872;2024-02-04T02:53:02;89778.88;;;-5.13;56.91
82476;BME280;72099;43.176;76.872;2024-02-04T02:56:03;89784.66;;;-4.91;56.04
82476;BME280;72099;43.176;76.872;2024-02-04T02:59:04;89783.19;;;-4.71;56.60
82476;BME280;72099;43.176;76.872;2024-02-04T03:02:05;89786.59;;;-4.56;55.58
82476;BME280;72099;43.176;76.872;2024-02-04T03:05:08;89775.06;;;-4.48;55.51
82476;BME280;72099;43.176;76.872;2024-02-04T03:08:10;89783.31;;;-4.31;55.39
82476;BME280;72099;43.176;76.872;2024-02-04T03:11:10;89788.78;;;-4.07;55.38
82476;BME280;72099;43.176;76.872;2024-02-04T03:14:13;89797.81;;;-3.89;55.29
82476;BME280;72099;43.176;76.872;2024-02-04T03:17:14;89799.13;;;-3.61;53.56
82476;BME280;72099;43.176;76.872;2024-02-04T03:20:15;89795.28;;;-3.33;54.08
82476;BME280;72099;43.176;76.872;2024-02-04T03:23:16;89801.94;;;-3.07;54.25
82476;BME280;72099;43.176;76.872;2024-02-04T03:26:17;89785.44;;;-2.95;53.90
82476;BME280;72099;43.176;76.872;2024-02-04T03:29:21;89808.00;;;-2.62;53.68
82476;BME280;72099;43.176;76.872;2024-02-04T03:32:22;89809.53;;;-2.46;52.75
82476;BME280;72099;43.176;76.872;2024-02-04T03:35:22;89833.63;;;-2.16;52.26
82476;BME280;72099;43.176;76.872;2024-02-04T03:38:24;89834.78;;;-1.88;51.58
82476;BME280;72099;43.176;76.872;2024-02-04T03:41:25;89834.91;;;-1.69;51.04
82476;BME280;72099;43.176;76.872;2024-02-04T03:44:25;89828.69;;;-1.58;50.63
82476;BME280;72099;43.176;76.872;2024-02-04T03:47:27;89840.97;;;-1.40;49.75
82476;BME280;72099;43.176;76.872;2024-02-04T03:50:27;89836.50;;;-1.29;49.19
82476;BME280;72099;43.176;76.872;2024-02-04T03:53:29;89834.31;;;-1.12;49.00
82476;BME280;72099;43.176;76.872;2024-02-04T03:56:30;89831.06;;;-0.94;48.41
82476;BME280;72099;43.176;76.872;2024-02-04T03:59:31;89834.00;;;-0.76;47.46
82476;BME280;72099;43.176;76.872;2024-02-04T04:02:32;89843.16;;;-0.60;46.86
82476;BME280;72099;43.176;76.872;2024-02-04T04:05:33;89829.03;;;-0.44;46.24
82476;BME280;72099;43.176;76.872;2024-02-04T04:08:33;89832.19;;;-0.23;45.69
82476;BME280;72099;43.176;76.872;2024-02-04T04:11:34;89836.06;;;-0.02;45.74
82476;BME280;72099;43.176;76.872;2024-02-04T04:14:35;89831.16;;;0.21;44.81
82476;BME280;72099;43.176;76.872;2024-02-04T04:17:36;89825.19;;;0.44;44.49
82476;BME280;72099;43.176;76.872;2024-02-04T04:20:37;89826.66;;;0.69;42.90
82476;BME280;72099;43.176;76.872;2024-02-04T04:23:38;89823.25;;;0.87;42.71
82476;BME280;72099;43.176;76.872;2024-02-04T04:26:38;89824.13;;;1.15;42.47
82476;BME280;72099;43.176;76.872;2024-02-04T04:29:39;89810.06;;;1.22;42.27
82476;BME280;72099;43.176;76.872;2024-02-04T04:32:40;89821.03;;;1.46;42.33
82476;BME280;72099;43.176;76.872;2024-02-04T04:35:41;89824.16;;;1.75;42.66
82476;BME280;72099;43.176;76.872;2024-02-04T04:38:42;89825.63;;;1.95;42.54
82476;BME280;72099;43.176;76.872;2024-02-04T04:41:44;89830.22;;;2.26;41.75
82476;BME280;72099;43.176;76.872;2024-02-04T04:44:45;89834.53;;;2.80;41.63
82476;BME280;72099;43.176;76.872;2024-02-04T04:47:46;89831.78;;;3.44;40.99
82476;BME280;72099;43.176;76.872;2024-02-04T04:50:47;89828.88;;;4.07;40.31
82476;BME280;72099;43.176;76.872;2024-02-04T04:53:48;89831.03;;;4.62;38.63
82476;BME280;72099;43.176;76.872;2024-02-04T04:56:49;89831.69;;;5.02;38.35
82476;BME280;72099;43.176;76.872;2024-02-04T04:59:50;89829.09;;;5.37;37.32
82476;BME280;72099;43.176;76.872;2024-02-04T05:02:51;89831.03;;;5.66;36.75
82476;BME280;72099;43.176;76.872;2024-02-04T05:05:52;89831.75;;;5.84;35.91
82476;BME280;72099;43.176;76.872;2024-02-04T05:08:53;89838.66;;;6.06;35.73
82476;BME280;72099;43.176;76.872;2024-02-04T05:11:53;89833.53;;;6.18;35.36
82476;BME280;72099;43.176;76.872;2024-02-04T05:14:54;89833.34;;;6.32;36.23
82476;BME280;72099;43.176;76.872;2024-02-04T05:17:55;89835.81;;;6.58;35.94
82476;BME280;72099;43.176;76.872;2024-02-04T05:20:56;89845.59;;;6.69;34.94
82476;BME280;72099;43.176;76.872;2024-02-04T05:23:57;89851.31;;;6.63;34.06
82476;BME280;72099;43.176;76.872;2024-02-04T05:26:58;89844.28;;;6.55;33.42
82476;BME280;72099;43.176;76.872;2024-02-04T05:29:58;89856.50;;;6.71;33.71
82476;BME280;72099;43.176;76.872;2024-02-04T05:32:59;89857.69;;;6.83;33.29
82476;BME280;72099;43.176;76.872;2024-02-04T05:36:00;89866.81;;;6.97;33.65
82476;BME280;72099;43.176;76.872;2024-02-04T05:39:11;89868.94;;;7.04;33.11
82476;BME280;72099;43.176;76.872;2024-02-04T05:42:12;89877.84;;;7.32;32.31
82476;BME280;72099;43.176;76.872;2024-02-04T05:45:13;89884.06;;;7.40;32.16
82476;BME280;72099;43.176;76.872;2024-02-04T05:48:14;89889.56;;;7.26;31.92
82476;BME280;72099;43.176;76.872;2024-02-04T05:51:15;89892.53;;;6.95;30.84
82476;BME280;72099;43.176;76.872;2024-02-04T05:54:15;89897.75;;;6.66;31.50
82476;BME280;72099;43.176;76.872;2024-02-04T05:57:16;89910.97;;;6.61;31.70
82476;BME280;72099;43.176;76.872;2024-02-04T06:00:17;89907.91;;;6.59;31.93
82476;BME280;72099;43.176;76.872;2024-02-04T06:03:18;89907.56;;;6.69;31.59
82476;BME280;72099;43.176;76.872;2024-02-04T06:06:19;89916.59;;;6.80;31.23
82476;BME280;72099;43.176;76.872;2024-02-04T06:09:20;89909.59;;;7.22;30.70
82476;BME280;72099;43.176;76.872;2024-02-04T06:12:21;89906.63;;;8.07;29.54
82476;BME280;72099;43.176;76.872;2024-02-04T06:15:22;89904.50;;;9.40;28.27
82476;BME280;72099;43.176;76.872;2024-02-04T06:18:23;89896.72;;;10.99;27.81
82476;BME280;72099;43.176;76.872;2024-02-04T06:21:24;89895.44;;;12.53;26.44
82476;BME280;72099;43.176;76.872;2024-02-04T06:24:24;89893.41;;;13.61;24.95
82476;BME280;72099;43.176;76.872;2024-02-04T06:27:25;89890.13;;;14.98;24.32
82476;BME280;72099;43.176;76.872;2024-02-04T06:30:26;89898.13;;;16.04;22.87
82476;BME280;72099;43.176;76.872;2024-02-04T06:33:27;89892.69;;;15.83;22.51
82476;BME280;72099;43.176;76.872;2024-02-04T06:36:43;89899.41;;;15.22;22.57
82476;BME280;72099;43.176;76.872;2024-02-04T06:39:46;89894.41;;;15.13;22.06
82476;BME280;72099;43.176;76.872;2024-02-04T06:42:47;89888.91;;;14.88;21.73
82476;BME280;72099;43.176;76.872;2024-02-04T06:45:48;89894.69;;;14.64;21.66
82476;BME280;72099;43.176;76.872;2024-02-04T06:48:49;89895.50;;;14.34;21.40
82476;BME280;72099;43.176;76.872;2024-02-04T06:51:50;89883.50;;;14.44;21.19
82476;BME280;72099;43.176;76.872;2024-02-04T06:54:53;89893.19;;;15.03;19.60
82476;BME280;72099;43.176;76.872;2024-02-04T07:01:20;89901.16;;;14.66;19.76
82476;BME280;72099;43.176;76.872;2024-02-04T07:04:21;89902.06;;;14.81;21.09
82476;BME280;72099;43.176;76.872;2024-02-04T07:07:22;89903.53;;;14.79;20.61
82476;BME280;72099;43.176;76.872;2024-02-04T07:10:23;89898.22;;;14.11;20.90
82476;BME280;72099;43.176;76.872;2024-02-04T07:13:24;89904.56;;;13.24;21.69
82476;BME280;72099;43.176;76.872;2024-02-04T07:16:25;89909.81;;;12.78;21.79
82476;BME280;72099;43.176;76.872;2024-02-04T07:19:26;89920.34;;;12.55;20.74
82476;BME280;72099;43.176;76.872;2024-02-04T07:22:27;89910.78;;;12.28;20.97
82476;BME280;72099;43.176;76.872;2024-02-04T07:25:28;89912.09;;;12.37;21.21
82476;BME280;72099;43.176;76.872;2024-02-04T07:28:28;89908.13;;;12.47;21.69
82476;BME280;72099;43.176;76.872;2024-02-04T07:31:29;89906.63;;;12.69;21.06
82476;BME280;72099;43.176;76.872;2024-02-04T07:34:30;89916.91;;;12.97;20.85
82476;BME280;72099;43.176;76.872;2024-02-04T07:37:31;89922.69;;;12.60;20.77
82476;BME280;72099;43.176;76.872;2024-02-04T07:40:32;89910.84;;;11.93;20.56
82476;BME280;72099;43.176;76.872;2024-02-04T07:43:33;89926.59;;;11.73;21.08
82476;BME280;72099;43.176;76.872;2024-02-04T07:46:34;89928.19;;;11.78;20.92
82476;BME280;72099;43.176;76.872;2024-02-04T07:49:35;89924.38;;;12.30;19.87
82476;BME280;72099;43.176;76.872;2024-02-04T07:52:36;89921.06;;;12.75;19.66
82476;BME280;72099;43.176;76.872;2024-02-04T07:55:36;89914.94;;;12.90;19.31
82476;BME280;72099;43.176;76.872;2024-02-04T07:58:37;89914.84;;;12.87;19.77
82476;BME280;72099;43.176;76.872;2024-02-04T08:01:38;89921.25;;;12.86;20.77
82476;BME280;72099;43.176;76.872;2024-02-04T08:04:42;89920.50;;;13.08;19.91
82476;BME280;72099;43.176;76.872;2024-02-04T08:07:43;89922.81;;;13.33;18.90
82476;BME280;72099;43.176;76.872;2024-02-04T08:10:44;89916.59;;;13.71;18.36
82476;BME280;72099;43.176;76.872;2024-02-04T08:13:45;89911.59;;;14.22;17.49
82476;BME280;72099;43.176;76.872;2024-02-04T08:16:45;89895.59;;;14.79;16.24
82476;BME280;72099;43.176;76.872;2024-02-04T08:19:48;89905.63;;;15.44;15.89
82476;BME280;72099;43.176;76.872;2024-02-04T08:22:49;89887.81;;;15.96;14.66
82476;BME280;72099;43.176;76.872;2024-02-04T08:25:50;89896.72;;;16.28;14.55
82476;BME280;72099;43.176;76.872;2024-02-04T08:28:51;89893.31;;;16.31;15.02
82476;BME280;72099;43.176;76.872;2024-02-04T08:31:52;89900.16;;;16.32;15.25
82476;BME280;72099;43.176;76.872;2024-02-04T08:34:53;89899.41;;;16.39;15.87
82476;BME280;72099;43.176;76.872;2024-02-04T08:37:54;89905.72;;;16.13;15.99
82476;BME280;72099;43.176;76.872;2024-02-04T08:40:55;89902.53;;;15.82;16.16
82476;BME280;72099;43.176;76.872;2024-02-04T08:43:56;89905.34;;;15.56;16.03
82476;BME280;72099;43.176;76.872;2024-02-04T08:46:57;89898.91;;;15.53;17.45
82476;BME280;72099;43.176;76.872;2024-02-04T08:49:58;89914.00;;;15.49;17.92
82476;BME280;72099;43.176;76.872;2024-02-04T08:52:59;89906.97;;;15.23;16.46
82476;BME280;72099;43.176;76.872;2024-02-04T08:56:00;89918.38;;;14.87;16.58
82476;BME280;72099;43.176;76.872;2024-02-04T08:59:01;89924.34;;;14.77;16.37
82476;BME280;72099;43.176;76.872;2024-02-04T09:02:02;89912.97;;;14.76;16.59
82476;BME280;72099;43.176;76.872;2024-02-04T09:05:04;89914.91;;;14.79;16.74
82476;BME280;72099;43.176;76.872;2024-02-04T09:08:05;89927.41;;;14.82;18.43
82476;BME280;72099;43.176;76.872;2024-02-04T09:11:06;89933.31;;;14.68;19.66
82476;BME280;72099;43.176;76.872;2024-02-04T09:14:06;89925.56;;;14.49;19.66
82476;BME280;72099;43.176;76.872;2024-02-04T09:17:08;89927.59;;;14.03;20.06
82476;BME280;72099;43.176;76.872;2024-02-04T09:20:10;89938.47;;;13.45;21.60
82476;BME280;72099;43.176;76.872;2024-02-04T09:23:11;89955.00;;;12.96;20.54
82476;BME280;72099;43.176;76.872;2024-02-04T09:26:12;89957.72;;;12.38;20.35
82476;BME280;72099;43.176;76.872;2024-02-04T09:29:13;89953.41;;;11.95;21.39
82476;BME280;72099;43.176;76.872;2024-02-04T09:32:14;89970.03;;;11.64;22.72
82476;BME280;72099;43.176;76.872;2024-02-04T09:35:15;89972.13;;;11.23;24.82
82476;BME280;72099;43.176;76.872;2024-02-04T09:38:15;89975.75;;;10.87;25.21
82476;BME280;72099;43.176;76.872;2024-02-04T09:41:16;89993.50;;;10.62;25.45
82476;BME280;72099;43.176;76.872;2024-02-04T09:44:17;89994.19;;;10.59;25.83
82476;BME280;72099;43.176;76.872;2024-02-04T09:47:20;89986.63;;;10.29;25.62
82476;BME280;72099;43.176;76.872;2024-02-04T09:50:21;90001.75;;;10.08;26.33
82476;BME280;72099;43.176;76.872;2024-02-04T09:53:31;90012.72;;;10.10;26.91
82476;BME280;72099;43.176;76.872;2024-02-04T09:56:34;90022.94;;;9.75;27.03
82476;BME280;72099;43.176;76.872;2024-02-04T09:59:36;90030.25;;;9.33;27.96
82476;BME280;72099;43.176;76.872;2024-02-04T10:02:37;90041.91;;;8.86;29.14
82476;BME280;72099;43.176;76.872;2024-02-04T10:05:38;90049.47;;;8.34;29.36
82476;BME280;72099;43.176;76.872;2024-02-04T10:08:38;90049.50;;;7.75;30.87
82476;BME280;72099;43.176;76.872;2024-02-04T10:11:39;90053.91;;;7.24;31.62
82476;BME280;72099;43.176;76.872;2024-02-04T10:14:40;90065.88;;;6.87;33.27
82476;BME280;72099;43.176;76.872;2024-02-04T10:17:47;90073.00;;;6.35;33.68
82476;BME280;72099;43.176;76.872;2024-02-04T10:20:48;90086.66;;;5.97;35.35
82476;BME280;72099;43.176;76.872;2024-02-04T10:23:49;90087.22;;;5.85;36.17
82476;BME280;72099;43.176;76.872;2024-02-04T10:26:51;90068.13;;;5.59;36.16
82476;BME280;72099;43.176;76.872;2024-02-04T10:29:52;90097.25;;;5.35;36.84
82476;BME280;72099;43.176;76.872;2024-02-04T10:32:53;90075.16;;;5.01;38.21
82476;BME280;72099;43.176;76.872;2024-02-04T10:35:54;90095.66;;;5.25;38.47
82476;BME280;72099;43.176;76.872;2024-02-04T10:38:55;90105.53;;;5.06;39.35
82476;BME280;72099;43.176;76.872;2024-02-04T10:42:02;90116.78;;;4.84;39.57
82476;BME280;72099;43.176;76.872;2024-02-04T10:45:08;90115.91;;;4.66;40.30
82476;BME280;72099;43.176;76.872;2024-02-04T10:48:11;90114.34;;;4.65;41.33
82476;BME280;72099;43.176;76.872;2024-02-04T10:51:15;90123.78;;;4.75;42.34
82476;BME280;72099;43.176;76.872;2024-02-04T10:54:16;90123.00;;;4.74;41.57
82476;BME280;72099;43.176;76.872;2024-02-04T10:57:21;90103.47;;;4.63;43.19
82476;BME280;72099;43.176;76.872;2024-02-04T11:00:28;90120.09;;;4.76;43.60
82476;BME280;72099;43.176;76.872;2024-02-04T11:03:29;90113.78;;;4.46;43.31
82476;BME280;72099;43.176;76.872;2024-02-04T11:06:32;90128.31;;;4.25;44.68
82476;BME280;72099;43.176;76.872;2024-02-04T11:09:33;90125.06;;;4.19;44.36
82476;BME280;72099;43.176;76.872;2024-02-04T11:12:35;90117.84;;;3.80;45.08
82476;BME280;72099;43.176;76.872;2024-02-04T11:15:39;90139.91;;;3.69;45.68
82476;BME280;72099;43.176;76.872;2024-02-04T11:25:45;90150.50;;;3.17;47.25
82476;BME280;72099;43.176;76.872;2024-02-04T11:28:46;90143.66;;;3.21;47.85
82476;BME280;72099;43.176;76.872;2024-02-04T11:31:47;90139.50;;;3.20;47.97
82476;BME280;72099;43.176;76.872;2024-02-04T11:34:48;90146.41;;;2.97;47.81
82476;BME280;72099;43.176;76.872;2024-02-04T11:37:55;90151.16;;;2.63;48.95
82476;BME280;72099;43.176;76.872;2024-02-04T11:40:56;90151.03;;;2.54;49.87
82476;BME280;72099;43.176;76.872;2024-02-04T11:43:58;90141.44;;;2.36;49.38
82476;BME280;72099;43.176;76.872;2024-02-04T11:47:02;90160.09;;;2.19;49.50
82476;BME280;72099;43.176;76.872;2024-02-04T11:50:03;90159.34;;;2.00;51.03
82476;BME280;72099;43.176;76.872;2024-02-04T11:53:12;90158.38;;;1.96;51.87
82476;BME280;72099;43.176;76.872;2024-02-04T11:56:13;90167.25;;;1.90;51.80
82476;BME280;72099;43.176;76.872;2024-02-04T11:59:14;90170.25;;;1.35;52.51
82476;BME280;72099;43.176;76.872;2024-02-04T12:02:18;90181.19;;;1.03;52.97
82476;BME280;72099;43.176;76.872;2024-02-04T12:05:20;90180.41;;;1.03;54.71
82476;BME280;72099;43.176;76.872;2024-02-04T12:08:22;90188.56;;;1.15;55.37
82476;BME280;72099;43.176;76.872;2024-02-04T12:11:23;90189.31;;;1.21;55.88
82476;BME280;72099;43.176;76.872;2024-02-04T12:14:25;90199.94;;;1.19;55.89
82476;BME280;72099;43.176;76.872;2024-02-04T12:17:26;90199.84;;;1.00;55.96
82476;BME280;72099;43.176;76.872;2024-02-04T12:20:27;90208.81;;;0.84;56.28
82476;BME280;72099;43.176;76.872;2024-02-04T12:23:28;90209.09;;;0.82;56.30
82476;BME280;72099;43.176;76.872;2024-02-04T12:26:29;90211.25;;;0.70;56.38
82476;BME280;72099;43.176;76.872;2024-02-04T12:29:31;90205.22;;;0.46;56.78
82476;BME280;72099;43.176;76.872;2024-02-04T12:32:33;90212.69;;;0.13;57.25
82476;BME280;72099;43.176;76.872;2024-02-04T12:35:34;90220.25;;;-0.01;57.62
82476;BME280;72099;43.176;76.872;2024-02-04T12:38:36;90226.38;;;-0.41;57.10
82476;BME280;72099;43.176;76.872;2024-02-04T12:41:37;90221.31;;;-0.66;58.27
82476;BME280;72099;43.176;76.872;2024-02-04T12:44:38;90216.13;;;-0.61;58.31
82476;BME280;72099;43.176;76.872;2024-02-04T12:47:39;90226.16;;;-0.44;59.19
82476;BME280;72099;43.176;76.872;2024-02-04T12:50:41;90220.75;;;-0.48;57.34
82476;BME280;72099;43.176;76.872;2024-02-04T12:53:42;90212.59;;;-0.91;56.19
82476;BME280;72099;43.176;76.872;2024-02-04T12:56:53;90219.56;;;-0.96;56.86
82476;BME280;72099;43.176;76.872;2024-02-04T13:00:04;90222.88;;;-0.80;56.97
82476;BME280;72099;43.176;76.872;2024-02-04T13:03:09;90222.88;;;-0.70;57.46
82476;BME280;72099;43.176;76.872;2024-02-04T13:06:10;90222.88;;;-0.70;58.04
82476;BME280;72099;43.176;76.872;2024-02-04T13:09:11;90206.34;;;-0.79;57.49
82476;BME280;72099;43.176;76.872;2024-02-04T13:12:14;90218.47;;;-0.70;57.64
82476;BME280;72099;43.176;76.872;2024-02-04T13:15:16;90200.22;;;-0.88;56.51
82476;BME280;72099;43.176;76.872;2024-02-04T13:18:17;90218.00;;;-0.82;56.55
82476;BME280;72099;43.176;76.872;2024-02-04T13:21:18;90202.28;;;-0.91;57.32
82476;BME280;72099;43.176;76.872;2024-02-04T13:24:22;90211.28;;;-0.78;56.43
82476;BME280;72099;43.176;76.872;2024-02-04T13:27:22;90210.78;;;-0.85;56.28
82476;BME280;72099;43.176;76.872;2024-02-04T13:30:23;90219.31;;;-0.90;55.83
82476;BME280;72099;43.176;76.872;2024-02-04T13:33:24;90220.59;;;-0.92;55.93
82476;BME280;72099;43.176;76.872;2024-02-04T13:36:25;90226.78;;;-0.93;55.00
82476;BME280;72099;43.176;76.872;2024-02-04T13:39:26;90228.59;;;-0.94;54.71
82476;BME280;72099;43.176;76.872;2024-02-04T13:42:27;90222.13;;;-0.86;55.09
82476;BME280;72099;43.176;76.872;2024-02-04T13:45:27;90220.63;;;-0.97;52.08
82476;BME280;72099;43.176;76.872;2024-02-04T13:48:28;90202.34;;;-1.36;50.76
82476;BME280;72099;43.176;76.872;2024-02-04T13:51:29;90209.06;;;-1.61;49.50
82476;BME280;72099;43.176;76.872;2024-02-04T13:54:30;90233.28;;;-1.46;50.70
82476;BME280;72099;43.176;76.872;2024-02-04T13:57:32;90226.31;;;-1.31;51.85
82476;BME280;72099;43.176;76.872;2024-02-04T14:00:33;90229.16;;;-1.12;51.70
82476;BME280;72099;43.176;76.872;2024-02-04T14:03:34;90227.31;;;-1.06;51.58
82476;BME280;72099;43.176;76.872;2024-02-04T14:06:35;90227.84;;;-1.04;52.56
82476;BME280;72099;43.176;76.872;2024-02-04T14:09:36;90233.00;;;-1.04;52.68
82476;BME280;72099;43.176;76.872;2024-02-04T14:12:37;90224.50;;;-1.20;52.83
82476;BME280;72099;43.176;76.872;2024-02-04T14:15:39;90241.56;;;-1.39;52.45
82476;BME280;72099;43.176;76.872;2024-02-04T14:18:40;90235.09;;;-1.62;52.65
82476;BME280;72099;43.176;76.872;2024-02-04T14:21:46;90232.00;;;-1.64;52.57
82476;BME280;72099;43.176;76.872;2024-02-04T14:24:47;90230.97;;;-1.68;52.57
82476;BME280;72099;43.176;76.872;2024-02-04T14:28:00;90233.28;;;-1.62;52.18
82476;BME280;72099;43.176;76.872;2024-02-04T14:31:00;90231.25;;;-1.65;52.19
82476;BME280;72099;43.176;76.872;2024-02-04T14:34:01;90230.97;;;-1.58;52.43
82476;BME280;72099;43.176;76.872;2024-02-04T14:37:02;90220.16;;;-1.55;52.01
82476;BME280;72099;43.176;76.872;2024-02-04T14:40:04;90221.94;;;-1.61;51.88
82476;BME280;72099;43.176;76.872;2024-02-04T14:43:07;90217.53;;;-1.70;51.51
82476;BME280;72099;43.176;76.872;2024-02-04T14:46:08;90218.34;;;-1.65;51.43
82476;BME280;72099;43.176;76.872;2024-02-04T14:49:09;90217.56;;;-1.60;51.25
82476;BME280;72099;43.176;76.872;2024-02-04T14:52:10;90224.28;;;-1.49;50.82
82476;BME280;72099;43.176;76.872;2024-02-04T14:55:11;90218.09;;;-1.43;50.63
82476;BME280;72099;43.176;76.872;2024-02-04T14:58:41;90219.88;;;-1.49;50.37
82476;BME280;72099;43.176;76.872;2024-02-04T15:01:47;90200.81;;;-1.63;50.27
82476;BME280;72099;43.176;76.872;2024-02-04T15:04:48;90213.19;;;-1.65;50.10
82476;BME280;72099;43.176;76.872;2024-02-04T15:07:57;90219.63;;;-1.62;50.14
82476;BME280;72099;43.176;76.872;2024-02-04T15:10:58;90226.59;;;-1.63;49.72
82476;BME280;72099;43.176;76.872;2024-02-04T15:13:59;90221.41;;;-1.83;49.83
82476;BME280;72099;43.176;76.872;2024-02-04T15:17:01;90227.09;;;-1.91;50.78
82476;BME280;72099;43.176;76.872;2024-02-04T15:20:03;90233.00;;;-2.01;50.81
82476;BME280;72099;43.176;76.872;2024-02-04T15:23:04;90236.31;;;-2.21;48.16
82476;BME280;72099;43.176;76.872;2024-02-04T15:26:07;90232.84;;;-2.52;48.20
82476;BME280;72099;43.176;76.872;2024-02-04T15:29:09;90236.44;;;-2.53;49.58
82476;BME280;72099;43.176;76.872;2024-02-04T15:32:15;90244.69;;;-2.51;48.96
82476;BME280;72099;43.176;76.872;2024-02-04T15:35:16;90242.59;;;-2.59;48.42
82476;BME280;72099;43.176;76.872;2024-02-04T15:38:18;90223.25;;;-2.72;49.77
82476;BME280;72099;43.176;76.872;2024-02-04T15:41:19;90239.00;;;-2.53;50.28
82476;BME280;72099;43.176;76.872;2024-02-04T15:44:20;90240.28;;;-2.60;48.76
82476;BME280;72099;43.176;76.872;2024-02-04T15:47:23;90241.75;;;-2.75;48.15
82476;BME280;72099;43.176;76.872;2024-02-04T15:50:26;90239.78;;;-3.10;47.80
82476;BME280;72099;43.176;76.872;2024-02-04T15:53:27;90242.19;;;-3.30;48.42
82476;BME280;72099;43.176;76.872;2024-02-04T15:56:32;90228.22;;;-3.44;48.73
82476;BME280;72099;43.176;76.872;2024-02-04T15:59:49;90245.69;;;-3.46;49.33
82476;BME280;72099;43.176;76.872;2024-02-04T16:02:52;90249.03;;;-3.46;49.30
82476;BME280;72099;43.176;76.872;2024-02-04T16:05:53;90251.22;;;-3.28;50.54